sensor_id;sensor_type;location;lat;lon;timestamp;temperature;humidity
3709;DHT22;1870;53.996;10.784;2023-09-07T00:01:47;20.50;99.90
3709;DHT22;1870;53.996;10.784;2023-09-07T00:04:13;20.50;99.90
3709;DHT22;1870;53.996;10.784;2023-09-07T00:06:40;20.40;99.90
3709;DHT22;1870;53.996;10.784;2023-09-07T00:09:09;20.50;99.90
3709;DHT22;1870;53.996;10.784;2023-09-07T00:11:36;20.40;99.90
3709;DHT22;1870;53.996;10.784;2023-09-07T00:14:02;20.50;99.90
3709;DHT22;1870;53.996;10.784;2023-09-07T00:16:28;20.50;99.90
3709;DHT22;1870;53.996;10.784;2023-09-07T00:18:53;20.30;99.90
3709;DHT22;1870;53.996;10.784;2023-09-07T00:21:19;20.30;99.90
3709;DHT22;1870;53.996;10.784;2023-09-07T00:23:45;20.20;99.90
3709;DHT22;1870;53.996;10.784;2023-09-07T00:26:10;20.30;99.90
3709;DHT22;1870;53.996;10.784;2023-09-07T00:28:38;20.30;99.90
3709;DHT22;1870;53.996;10.784;2023-09-07T00:31:03;20.30;99.90
3709;DHT22;1870;53.996;10.784;2023-09-07T00:33:29;20.30;99.90
3709;DHT22;1870;53.996;10.784;2023-09-07T00:35:55;20.30;99.90
3709;DHT22;1870;53.996;10.784;2023-09-07T00:38:20;20.40;99.90
3709;DHT22;1870;53.996;10.784;2023-09-07T00:40:48;20.30;99.90
3709;DHT22;1870;53.996;10.784;2023-09-07T00:43:13;20.30;99.90
3709;DHT22;1870;53.996;10.784;2023-09-07T00:45:39;20.20;99.90
3709;DHT22;1870;53.996;10.784;2023-09-07T00:48:05;20.20;99.90
3709;DHT22;1870;53.996;10.784;2023-09-07T00:50:31;20.20;99.90
3709;DHT22;1870;53.996;10.784;2023-09-07T00:52:59;20.20;99.90
3709;DHT22;1870;53.996;10.784;2023-09-07T00:55:27;20.10;99.90
3709;DHT22;1870;53.996;10.784;2023-09-07T00:57:53;20.10;99.90
3709;DHT22;1870;53.996;10.784;2023-09-07T01:00:20;20.20;99.90
3709;DHT22;1870;53.996;10.784;2023-09-07T01:02:46;20.20;99.90
3709;DHT22;1870;53.996;10.784;2023-09-07T01:05:13;20.20;99.90
3709;DHT22;1870;53.996;10.784;2023-09-07T01:07:56;20.20;99.90
3709;DHT22;1870;53.996;10.784;2023-09-07T01:10:22;20.20;99.90
3709;DHT22;1870;53.996;10.784;2023-09-07T01:12:49;20.30;99.90
3709;DHT22;1870;53.996;10.784;2023-09-07T01:15:14;20.20;99.90
3709;DHT22;1870;53.996;10.784;2023-09-07T01:17:40;20.20;99.90
3709;DHT22;1870;53.996;10.784;2023-09-07T01:20:07;20.10;99.90
3709;DHT22;1870;53.996;10.784;2023-09-07T01:22:36;20.20;99.90
3709;DHT22;1870;53.996;10.784;2023-09-07T01:25:02;20.20;99.90
3709;DHT22;1870;53.996;10.784;2023-09-07T01:27:30;20.30;99.90
3709;DHT22;1870;53.996;10.784;2023-09-07T01:29:56;20.20;99.90
3709;DHT22;1870;53.996;10.784;2023-09-07T01:32:22;20.20;99.90
3709;DHT22;1870;53.996;10.784;2023-09-07T01:34:49;20.20;99.90
3709;DHT22;1870;53.996;10.784;2023-09-07T01:37:14;20.20;99.90
3709;DHT22;1870;53.996;10.784;2023-09-07T01:39:40;20.20;99.90
3709;DHT22;1870;53.996;10.784;2023-09-07T01:42:06;20.20;99.90
3709;DHT22;1870;53.996;10.784;2023-09-07T01:44:31;20.10;99.90
3709;DHT22;1870;53.996;10.784;2023-09-07T01:46:57;20.20;99.90
3709;DHT22;1870;53.996;10.784;2023-09-07T01:49:23;20.10;99.90
3709;DHT22;1870;53.996;10.784;2023-09-07T01:51:51;20.10;99.90
3709;DHT22;1870;53.996;10.784;2023-09-07T01:54:18;20.10;99.90
3709;DHT22;1870;53.996;10.784;2023-09-07T01:56:43;20.10;99.90
3709;DHT22;1870;53.996;10.784;2023-09-07T01:59:09;20.00;99.90
3709;DHT22;1870;53.996;10.784;2023-09-07T02:01:34;20.00;99.90
3709;DHT22;1870;53.996;10.784;2023-09-07T02:04:03;20.00;99.90
3709;DHT22;1870;53.996;10.784;2023-09-07T02:06:28;20.00;99.90
3709;DHT22;1870;53.996;10.784;2023-09-07T02:08:54;20.10;99.90
3709;DHT22;1870;53.996;10.784;2023-09-07T02:11:19;20.00;99.90
3709;DHT22;1870;53.996;10.784;2023-09-07T02:13:47;20.00;99.90
3709;DHT22;1870;53.996;10.784;2023-09-07T02:16:13;20.00;99.90
3709;DHT22;1870;53.996;10.784;2023-09-07T02:18:38;20.00;99.90
3709;DHT22;1870;53.996;10.784;2023-09-07T02:21:09;20.00;99.90
3709;DHT22;1870;53.996;10.784;2023-09-07T02:23:35;19.90;99.90
3709;DHT22;1870;53.996;10.784;2023-09-07T02:26:04;20.00;99.90
3709;DHT22;1870;53.996;10.784;2023-09-07T02:28:30;19.90;99.90
3709;DHT22;1870;53.996;10.784;2023-09-07T02:31:03;19.90;99.90
3709;DHT22;1870;53.996;10.784;2023-09-07T02:33:28;19.90;99.90
3709;DHT22;1870;53.996;10.784;2023-09-07T02:35:54;19.90;99.90
3709;DHT22;1870;53.996;10.784;2023-09-07T02:38:20;19.80;99.90
3709;DHT22;1870;53.996;10.784;2023-09-07T02:40:46;19.70;99.90
3709;DHT22;1870;53.996;10.784;2023-09-07T02:43:11;19.80;99.90
3709;DHT22;1870;53.996;10.784;2023-09-07T02:45:38;19.80;99.90
3709;DHT22;1870;53.996;10.784;2023-09-07T02:48:04;19.80;99.90
3709;DHT22;1870;53.996;10.784;2023-09-07T02:50:32;19.80;99.90
3709;DHT22;1870;53.996;10.784;2023-09-07T02:52:59;19.70;99.90
3709;DHT22;1870;53.996;10.784;2023-09-07T02:55:26;19.70;99.90
3709;DHT22;1870;53.996;10.784;2023-09-07T02:57:51;19.80;99.90
3709;DHT22;1870;53.996;10.784;2023-09-07T03:00:17;19.80;99.90
3709;DHT22;1870;53.996;10.784;2023-09-07T03:02:43;19.80;99.90
3709;DHT22;1870;53.996;10.784;2023-09-07T03:05:09;19.80;99.90
3709;DHT22;1870;53.996;10.784;2023-09-07T03:07:35;19.80;99.90
3709;DHT22;1870;53.996;10.784;2023-09-07T03:10:01;19.70;99.90
3709;DHT22;1870;53.996;10.784;2023-09-07T03:12:29;19.70;99.90
3709;DHT22;1870;53.996;10.784;2023-09-07T03:14:54;19.60;99.90
3709;DHT22;1870;53.996;10.784;2023-09-07T03:17:20;19.60;99.90
3709;DHT22;1870;53.996;10.784;2023-09-07T03:19:47;19.60;99.90
3709;DHT22;1870;53.996;10.784;2023-09-07T03:22:13;19.60;99.90
3709;DHT22;1870;53.996;10.784;2023-09-07T03:24:39;19.60;99.90
3709;DHT22;1870;53.996;10.784;2023-09-07T03:27:05;19.60;99.90
3709;DHT22;1870;53.996;10.784;2023-09-07T03:29:34;19.60;99.90
3709;DHT22;1870;53.996;10.784;2023-09-07T03:32:01;19.60;99.90
3709;DHT22;1870;53.996;10.784;2023-09-07T03:34:27;19.60;99.90
3709;DHT22;1870;53.996;10.784;2023-09-07T03:36:53;19.60;99.90
3709;DHT22;1870;53.996;10.784;2023-09-07T03:39:20;19.60;99.90
3709;DHT22;1870;53.996;10.784;2023-09-07T03:41:48;19.40;99.90
3709;DHT22;1870;53.996;10.784;2023-09-07T03:44:13;19.50;99.90
3709;DHT22;1870;53.996;10.784;2023-09-07T03:46:42;19.50;99.90
3709;DHT22;1870;53.996;10.784;2023-09-07T03:49:07;19.60;99.90
3709;DHT22;1870;53.996;10.784;2023-09-07T03:51:33;19.50;99.90
3709;DHT22;1870;53.996;10.784;2023-09-07T03:53:59;19.60;99.90
3709;DHT22;1870;53.996;10.784;2023-09-07T03:56:25;19.60;99.90
3709;DHT22;1870;53.996;10.784;2023-09-07T03:58:51;19.60;99.90
3709;DHT22;1870;53.996;10.784;2023-09-07T04:01:18;19.50;99.90
3709;DHT22;1870;53.996;10.784;2023-09-07T04:03:44;19.60;99.90
3709;DHT22;1870;53.996;10.784;2023-09-07T04:06:10;19.50;99.90
3709;DHT22;1870;53.996;10.784;2023-09-07T04:08:37;19.40;99.90
3709;DHT22;1870;53.996;10.784;2023-09-07T04:11:05;19.40;99.90
3709;DHT22;1870;53.996;10.784;2023-09-07T04:13:31;19.40;99.90
3709;DHT22;1870;53.996;10.784;2023-09-07T04:15:57;19.50;99.90
3709;DHT22;1870;53.996;10.784;2023-09-07T04:18:23;19.50;99.90
3709;DHT22;1870;53.996;10.784;2023-09-07T04:20:48;19.40;99.90
3709;DHT22;1870;53.996;10.784;2023-09-07T04:23:14;19.50;99.90
3709;DHT22;1870;53.996;10.784;2023-09-07T04:25:40;19.50;99.90
3709;DHT22;1870;53.996;10.784;2023-09-07T04:28:06;19.40;99.90
3709;DHT22;1870;53.996;10.784;2023-09-07T04:30:36;19.40;99.90
3709;DHT22;1870;53.996;10.784;2023-09-07T04:33:02;19.50;99.90
3709;DHT22;1870;53.996;10.784;2023-09-07T04:35:29;19.50;99.90
3709;DHT22;1870;53.996;10.784;2023-09-07T04:37:57;19.60;99.90
3709;DHT22;1870;53.996;10.784;2023-09-07T04:40:24;19.60;99.90
3709;DHT22;1870;53.996;10.784;2023-09-07T04:42:49;19.60;99.90
3709;DHT22;1870;53.996;10.784;2023-09-07T04:45:15;19.50;99.90
3709;DHT22;1870;53.996;10.784;2023-09-07T04:47:42;19.40;99.90
3709;DHT22;1870;53.996;10.784;2023-09-07T04:50:08;19.50;99.90
3709;DHT22;1870;53.996;10.784;2023-09-07T04:52:33;19.50;99.90
3709;DHT22;1870;53.996;10.784;2023-09-07T04:55:00;19.50;99.90
3709;DHT22;1870;53.996;10.784;2023-09-07T04:57:26;19.50;99.90
3709;DHT22;1870;53.996;10.784;2023-09-07T04:59:51;19.50;99.90
3709;DHT22;1870;53.996;10.784;2023-09-07T05:02:17;19.50;99.90
3709;DHT22;1870;53.996;10.784;2023-09-07T05:04:43;19.50;99.90
3709;DHT22;1870;53.996;10.784;2023-09-07T05:07:10;19.60;99.90
3709;DHT22;1870;53.996;10.784;2023-09-07T05:09:36;19.50;99.90
3709;DHT22;1870;53.996;10.784;2023-09-07T05:12:02;19.60;99.90
3709;DHT22;1870;53.996;10.784;2023-09-07T05:14:29;19.50;99.90
3709;DHT22;1870;53.996;10.784;2023-09-07T05:16:55;19.50;99.90
3709;DHT22;1870;53.996;10.784;2023-09-07T05:19:22;19.50;99.90
3709;DHT22;1870;53.996;10.784;2023-09-07T05:21:48;19.50;99.90
3709;DHT22;1870;53.996;10.784;2023-09-07T05:24:14;19.50;99.90
3709;DHT22;1870;53.996;10.784;2023-09-07T05:26:42;19.50;99.90
3709;DHT22;1870;53.996;10.784;2023-09-07T05:29:09;19.60;99.90
3709;DHT22;1870;53.996;10.784;2023-09-07T05:31:35;19.60;99.90
3709;DHT22;1870;53.996;10.784;2023-09-07T05:34:01;19.70;99.90
3709;DHT22;1870;53.996;10.784;2023-09-07T05:36:27;19.80;99.90
3709;DHT22;1870;53.996;10.784;2023-09-07T05:38:53;19.80;99.90
3709;DHT22;1870;53.996;10.784;2023-09-07T05:41:18;19.80;99.90
3709;DHT22;1870;53.996;10.784;2023-09-07T05:43:44;19.80;99.90
3709;DHT22;1870;53.996;10.784;2023-09-07T05:46:10;19.80;99.90
3709;DHT22;1870;53.996;10.784;2023-09-07T05:48:36;19.80;99.90
3709;DHT22;1870;53.996;10.784;2023-09-07T05:51:05;19.80;99.90
3709;DHT22;1870;53.996;10.784;2023-09-07T05:53:31;19.80;99.90
3709;DHT22;1870;53.996;10.784;2023-09-07T05:55:57;19.70;99.90
3709;DHT22;1870;53.996;10.784;2023-09-07T05:58:22;19.60;99.90
3709;DHT22;1870;53.996;10.784;2023-09-07T06:00:48;19.70;99.90
3709;DHT22;1870;53.996;10.784;2023-09-07T06:03:15;19.80;99.90
3709;DHT22;1870;53.996;10.784;2023-09-07T06:05:41;19.80;99.90
3709;DHT22;1870;53.996;10.784;2023-09-07T06:08:06;19.80;99.90
3709;DHT22;1870;53.996;10.784;2023-09-07T06:10:33;19.80;99.90
3709;DHT22;1870;53.996;10.784;2023-09-07T06:12:59;19.80;99.90
3709;DHT22;1870;53.996;10.784;2023-09-07T06:15:26;19.80;99.90
3709;DHT22;1870;53.996;10.784;2023-09-07T06:17:52;19.80;99.90
3709;DHT22;1870;53.996;10.784;2023-09-07T06:20:18;19.90;99.90
3709;DHT22;1870;53.996;10.784;2023-09-07T06:22:45;19.90;99.90
3709;DHT22;1870;53.996;10.784;2023-09-07T06:25:10;19.80;99.90
3709;DHT22;1870;53.996;10.784;2023-09-07T06:27:36;19.90;99.90
3709;DHT22;1870;53.996;10.784;2023-09-07T06:30:02;19.90;99.90
3709;DHT22;1870;53.996;10.784;2023-09-07T06:32:28;19.80;99.90
3709;DHT22;1870;53.996;10.784;2023-09-07T06:34:54;19.80;99.90
3709;DHT22;1870;53.996;10.784;2023-09-07T06:37:20;19.90;99.90
3709;DHT22;1870;53.996;10.784;2023-09-07T06:39:47;19.90;99.90
3709;DHT22;1870;53.996;10.784;2023-09-07T06:42:12;20.00;99.90
3709;DHT22;1870;53.996;10.784;2023-09-07T06:44:38;20.10;99.90
3709;DHT22;1870;53.996;10.784;2023-09-07T06:47:04;20.00;99.90
3709;DHT22;1870;53.996;10.784;2023-09-07T06:49:29;20.00;99.90
3709;DHT22;1870;53.996;10.784;2023-09-07T06:51:58;20.10;99.90
3709;DHT22;1870;53.996;10.784;2023-09-07T06:54:24;20.00;99.90
3709;DHT22;1870;53.996;10.784;2023-09-07T06:56:50;20.10;99.90
3709;DHT22;1870;53.996;10.784;2023-09-07T06:59:15;20.00;99.90
3709;DHT22;1870;53.996;10.784;2023-09-07T07:01:41;20.20;99.90
3709;DHT22;1870;53.996;10.784;2023-09-07T07:04:07;20.30;99.90
3709;DHT22;1870;53.996;10.784;2023-09-07T07:06:34;20.30;99.90
3709;DHT22;1870;53.996;10.784;2023-09-07T07:09:01;20.30;99.90
3709;DHT22;1870;53.996;10.784;2023-09-07T07:11:27;20.30;99.90
3709;DHT22;1870;53.996;10.784;2023-09-07T07:13:52;20.30;99.90
3709;DHT22;1870;53.996;10.784;2023-09-07T07:16:18;20.40;99.90
3709;DHT22;1870;53.996;10.784;2023-09-07T07:18:44;20.40;99.90
3709;DHT22;1870;53.996;10.784;2023-09-07T07:21:09;20.30;99.90
3709;DHT22;1870;53.996;10.784;2023-09-07T07:23:35;20.30;99.90
3709;DHT22;1870;53.996;10.784;2023-09-07T07:26:01;20.20;99.90
3709;DHT22;1870;53.996;10.784;2023-09-07T07:28:27;20.20;99.90
3709;DHT22;1870;53.996;10.784;2023-09-07T07:30:53;20.30;99.90
3709;DHT22;1870;53.996;10.784;2023-09-07T07:33:23;20.30;99.90
3709;DHT22;1870;53.996;10.784;2023-09-07T07:35:49;20.30;99.90
3709;DHT22;1870;53.996;10.784;2023-09-07T07:38:15;20.40;99.90
3709;DHT22;1870;53.996;10.784;2023-09-07T07:40:41;20.30;99.90
3709;DHT22;1870;53.996;10.784;2023-09-07T07:43:08;20.30;99.90
3709;DHT22;1870;53.996;10.784;2023-09-07T07:45:34;20.30;99.90
3709;DHT22;1870;53.996;10.784;2023-09-07T07:48:03;20.30;99.90
3709;DHT22;1870;53.996;10.784;2023-09-07T07:50:32;20.40;99.90
3709;DHT22;1870;53.996;10.784;2023-09-07T07:52:57;20.50;99.90
3709;DHT22;1870;53.996;10.784;2023-09-07T07:55:23;20.60;99.90
3709;DHT22;1870;53.996;10.784;2023-09-07T07:57:48;20.60;99.90
3709;DHT22;1870;53.996;10.784;2023-09-07T08:00:14;20.70;99.90
3709;DHT22;1870;53.996;10.784;2023-09-07T08:02:40;20.60;99.90
3709;DHT22;1870;53.996;10.784;2023-09-07T08:05:06;20.60;99.90
3709;DHT22;1870;53.996;10.784;2023-09-07T08:07:33;20.60;99.90
3709;DHT22;1870;53.996;10.784;2023-09-07T08:09:58;20.70;99.90
3709;DHT22;1870;53.996;10.784;2023-09-07T08:12:24;20.70;99.90
3709;DHT22;1870;53.996;10.784;2023-09-07T08:14:50;20.60;99.90
3709;DHT22;1870;53.996;10.784;2023-09-07T08:17:15;20.50;99.90
3709;DHT22;1870;53.996;10.784;2023-09-07T08:19:42;20.50;99.90
3709;DHT22;1870;53.996;10.784;2023-09-07T08:22:09;20.40;99.90
3709;DHT22;1870;53.996;10.784;2023-09-07T08:24:36;20.30;99.90
3709;DHT22;1870;53.996;10.784;2023-09-07T08:27:02;20.20;99.90
3709;DHT22;1870;53.996;10.784;2023-09-07T08:29:28;20.10;99.90
3709;DHT22;1870;53.996;10.784;2023-09-07T08:31:57;20.10;99.90
3709;DHT22;1870;53.996;10.784;2023-09-07T08:34:24;20.10;99.90
3709;DHT22;1870;53.996;10.784;2023-09-07T08:36:51;20.10;99.90
3709;DHT22;1870;53.996;10.784;2023-09-07T08:39:20;20.10;99.90
3709;DHT22;1870;53.996;10.784;2023-09-07T08:41:45;20.10;99.90
3709;DHT22;1870;53.996;10.784;2023-09-07T08:44:18;20.00;99.90
3709;DHT22;1870;53.996;10.784;2023-09-07T08:46:45;20.00;99.90
3709;DHT22;1870;53.996;10.784;2023-09-07T08:49:11;20.10;99.90
3709;DHT22;1870;53.996;10.784;2023-09-07T08:51:38;20.10;99.90
3709;DHT22;1870;53.996;10.784;2023-09-07T08:54:04;20.00;99.90
3709;DHT22;1870;53.996;10.784;2023-09-07T08:56:30;20.00;99.90
3709;DHT22;1870;53.996;10.784;2023-09-07T08:58:57;20.00;99.90
3709;DHT22;1870;53.996;10.784;2023-09-07T09:01:23;20.10;99.90
3709;DHT22;1870;53.996;10.784;2023-09-07T09:03:49;20.00;99.90
3709;DHT22;1870;53.996;10.784;2023-09-07T09:06:20;20.00;99.90
3709;DHT22;1870;53.996;10.784;2023-09-07T09:08:48;20.00;99.90
3709;DHT22;1870;53.996;10.784;2023-09-07T09:11:22;20.00;99.90
3709;DHT22;1870;53.996;10.784;2023-09-07T09:13:52;20.00;99.90
3709;DHT22;1870;53.996;10.784;2023-09-07T09:16:19;20.10;99.90
3709;DHT22;1870;53.996;10.784;2023-09-07T09:18:53;20.00;99.90
3709;DHT22;1870;53.996;10.784;2023-09-07T09:21:20;20.20;99.90
3709;DHT22;1870;53.996;10.784;2023-09-07T09:23:48;20.30;99.90
3709;DHT22;1870;53.996;10.784;2023-09-07T09:26:15;20.30;99.90
3709;DHT22;1870;53.996;10.784;2023-09-07T09:28:40;20.20;99.90
3709;DHT22;1870;53.996;10.784;2023-09-07T09:31:10;20.20;99.90
3709;DHT22;1870;53.996;10.784;2023-09-07T09:33:38;20.30;99.90
3709;DHT22;1870;53.996;10.784;2023-09-07T09:36:05;20.20;99.90
3709;DHT22;1870;53.996;10.784;2023-09-07T09:38:32;20.30;99.90
3709;DHT22;1870;53.996;10.784;2023-09-07T09:40:58;20.20;99.90
3709;DHT22;1870;53.996;10.784;2023-09-07T09:43:25;20.30;99.90
3709;DHT22;1870;53.996;10.784;2023-09-07T09:45:52;20.30;99.90
3709;DHT22;1870;53.996;10.784;2023-09-07T09:48:20;20.50;99.90
3709;DHT22;1870;53.996;10.784;2023-09-07T09:50:49;20.60;99.90
3709;DHT22;1870;53.996;10.784;2023-09-07T09:53:19;20.60;99.90
3709;DHT22;1870;53.996;10.784;2023-09-07T09:55:47;20.70;99.90
3709;DHT22;1870;53.996;10.784;2023-09-07T09:58:14;20.70;99.90
3709;DHT22;1870;53.996;10.784;2023-09-07T10:00:44;20.70;99.90
3709;DHT22;1870;53.996;10.784;2023-09-07T10:09:02;20.60;99.90
3709;DHT22;1870;53.996;10.784;2023-09-07T10:11:39;20.60;99.90
3709;DHT22;1870;53.996;10.784;2023-09-07T10:14:07;20.60;99.90
3709;DHT22;1870;53.996;10.784;2023-09-07T10:16:52;20.80;99.90
3709;DHT22;1870;53.996;10.784;2023-09-07T10:19:25;20.90;99.90
3709;DHT22;1870;53.996;10.784;2023-09-07T10:21:53;20.80;99.90
3709;DHT22;1870;53.996;10.784;2023-09-07T10:24:32;20.90;99.90
3709;DHT22;1870;53.996;10.784;2023-09-07T10:27:03;21.00;99.90
3709;DHT22;1870;53.996;10.784;2023-09-07T10:29:44;21.10;99.90
3709;DHT22;1870;53.996;10.784;2023-09-07T10:32:13;21.20;99.90
3709;DHT22;1870;53.996;10.784;2023-09-07T10:34:41;21.30;99.90
3709;DHT22;1870;53.996;10.784;2023-09-07T10:37:11;21.50;99.90
3709;DHT22;1870;53.996;10.784;2023-09-07T10:39:39;21.60;99.90
3709;DHT22;1870;53.996;10.784;2023-09-07T10:42:08;21.50;99.90
3709;DHT22;1870;53.996;10.784;2023-09-07T10:44:34;21.70;99.90
3709;DHT22;1870;53.996;10.784;2023-09-07T10:47:00;21.70;99.90
3709;DHT22;1870;53.996;10.784;2023-09-07T10:49:25;21.70;99.90
3709;DHT22;1870;53.996;10.784;2023-09-07T10:51:51;21.80;99.90
3709;DHT22;1870;53.996;10.784;2023-09-07T10:54:21;21.90;99.90
3709;DHT22;1870;53.996;10.784;2023-09-07T10:56:48;21.90;99.90
3709;DHT22;1870;53.996;10.784;2023-09-07T10:59:15;22.00;99.90
3709;DHT22;1870;53.996;10.784;2023-09-07T11:01:44;22.20;99.90
3709;DHT22;1870;53.996;10.784;2023-09-07T11:04:10;22.10;99.90
3709;DHT22;1870;53.996;10.784;2023-09-07T11:06:42;22.30;99.90
3709;DHT22;1870;53.996;10.784;2023-09-07T11:09:09;22.50;99.90
3709;DHT22;1870;53.996;10.784;2023-09-07T11:11:37;22.60;99.90
3709;DHT22;1870;53.996;10.784;2023-09-07T11:14:03;22.70;99.90
3709;DHT22;1870;53.996;10.784;2023-09-07T11:16:30;22.60;99.90
3709;DHT22;1870;53.996;10.784;2023-09-07T11:18:56;22.70;99.90
3709;DHT22;1870;53.996;10.784;2023-09-07T11:21:22;22.60;99.90
3709;DHT22;1870;53.996;10.784;2023-09-07T11:23:51;22.60;99.90
3709;DHT22;1870;53.996;10.784;2023-09-07T11:26:17;22.70;99.90
3709;DHT22;1870;53.996;10.784;2023-09-07T11:28:46;22.70;99.90
3709;DHT22;1870;53.996;10.784;2023-09-07T11:31:11;22.70;99.90
3709;DHT22;1870;53.996;10.784;2023-09-07T11:33:37;22.80;99.90
3709;DHT22;1870;53.996;10.784;2023-09-07T11:36:04;22.60;99.90
3709;DHT22;1870;53.996;10.784;2023-09-07T11:38:35;22.80;99.90
3709;DHT22;1870;53.996;10.784;2023-09-07T11:41:01;22.70;99.90
3709;DHT22;1870;53.996;10.784;2023-09-07T11:43:27;22.80;99.90
3709;DHT22;1870;53.996;10.784;2023-09-07T11:45:54;22.80;99.90
3709;DHT22;1870;53.996;10.784;2023-09-07T11:48:20;22.90;99.90
3709;DHT22;1870;53.996;10.784;2023-09-07T11:50:45;22.90;99.90
3709;DHT22;1870;53.996;10.784;2023-09-07T11:53:11;22.90;99.90
3709;DHT22;1870;53.996;10.784;2023-09-07T11:55:37;23.00;99.90
3709;DHT22;1870;53.996;10.784;2023-09-07T11:58:04;23.10;99.90
3709;DHT22;1870;53.996;10.784;2023-09-07T12:00:33;23.10;99.90
3709;DHT22;1870;53.996;10.784;2023-09-07T12:02:59;23.30;99.90
3709;DHT22;1870;53.996;10.784;2023-09-07T12:05:26;23.40;99.90
3709;DHT22;1870;53.996;10.784;2023-09-07T12:07:52;23.20;99.90
3709;DHT22;1870;53.996;10.784;2023-09-07T12:10:18;23.10;99.90
3709;DHT22;1870;53.996;10.784;2023-09-07T12:12:44;23.00;99.90
3709;DHT22;1870;53.996;10.784;2023-09-07T12:15:10;23.20;99.90
3709;DHT22;1870;53.996;10.784;2023-09-07T12:17:39;23.30;99.90
3709;DHT22;1870;53.996;10.784;2023-09-07T12:20:05;23.40;99.90
3709;DHT22;1870;53.996;10.784;2023-09-07T12:22:37;23.60;99.90
3709;DHT22;1870;53.996;10.784;2023-09-07T12:25:05;23.60;99.90
3709;DHT22;1870;53.996;10.784;2023-09-07T12:27:34;23.70;99.90
3709;DHT22;1870;53.996;10.784;2023-09-07T12:30:01;23.70;99.90
3709;DHT22;1870;53.996;10.784;2023-09-07T12:32:28;23.80;99.90
3709;DHT22;1870;53.996;10.784;2023-09-07T12:34:55;23.90;99.90
3709;DHT22;1870;53.996;10.784;2023-09-07T12:37:21;23.90;99.90
3709;DHT22;1870;53.996;10.784;2023-09-07T12:39:50;24.00;99.90
3709;DHT22;1870;53.996;10.784;2023-09-07T12:42:16;24.00;99.90
3709;DHT22;1870;53.996;10.784;2023-09-07T12:44:46;24.30;99.90
3709;DHT22;1870;53.996;10.784;2023-09-07T12:47:12;24.30;99.90
3709;DHT22;1870;53.996;10.784;2023-09-07T12:49:38;24.20;99.90
3709;DHT22;1870;53.996;10.784;2023-09-07T12:52:03;24.20;99.90
3709;DHT22;1870;53.996;10.784;2023-09-07T12:54:34;24.00;99.90
3709;DHT22;1870;53.996;10.784;2023-09-07T12:57:01;23.80;99.90
3709;DHT22;1870;53.996;10.784;2023-09-07T12:59:26;23.80;99.90
3709;DHT22;1870;53.996;10.784;2023-09-07T13:01:52;23.90;99.90
3709;DHT22;1870;53.996;10.784;2023-09-07T13:04:22;24.00;99.90
3709;DHT22;1870;53.996;10.784;2023-09-07T13:06:48;23.80;99.90
3709;DHT22;1870;53.996;10.784;2023-09-07T13:09:15;23.60;99.90
3709;DHT22;1870;53.996;10.784;2023-09-07T13:11:40;23.60;99.90
3709;DHT22;1870;53.996;10.784;2023-09-07T13:14:06;23.50;99.90
3709;DHT22;1870;53.996;10.784;2023-09-07T13:16:34;23.40;99.90
3709;DHT22;1870;53.996;10.784;2023-09-07T13:19:00;23.50;99.90
3709;DHT22;1870;53.996;10.784;2023-09-07T13:21:25;23.40;99.90
3709;DHT22;1870;53.996;10.784;2023-09-07T13:23:51;23.40;99.90
3709;DHT22;1870;53.996;10.784;2023-09-07T13:26:16;23.40;99.90
3709;DHT22;1870;53.996;10.784;2023-09-07T13:28:42;23.40;99.90
3709;DHT22;1870;53.996;10.784;2023-09-07T13:31:08;23.30;99.90
3709;DHT22;1870;53.996;10.784;2023-09-07T13:33:34;23.20;99.90
3709;DHT22;1870;53.996;10.784;2023-09-07T13:35:59;23.30;99.90
3709;DHT22;1870;53.996;10.784;2023-09-07T13:38:25;23.40;99.90
3709;DHT22;1870;53.996;10.784;2023-09-07T13:40:50;23.50;99.90
3709;DHT22;1870;53.996;10.784;2023-09-07T13:43:16;23.50;99.90
3709;DHT22;1870;53.996;10.784;2023-09-07T13:45:42;23.50;99.90
3709;DHT22;1870;53.996;10.784;2023-09-07T13:48:09;23.40;99.90
3709;DHT22;1870;53.996;10.784;2023-09-07T13:50:35;23.40;99.90
3709;DHT22;1870;53.996;10.784;2023-09-07T13:53:00;23.40;99.90
3709;DHT22;1870;53.996;10.784;2023-09-07T13:55:27;23.40;99.90
3709;DHT22;1870;53.996;10.784;2023-09-07T13:57:54;23.40;99.90
3709;DHT22;1870;53.996;10.784;2023-09-07T14:00:19;23.40;99.90
3709;DHT22;1870;53.996;10.784;2023-09-07T14:02:45;23.40;99.90
3709;DHT22;1870;53.996;10.784;2023-09-07T14:05:11;23.30;99.90
3709;DHT22;1870;53.996;10.784;2023-09-07T14:07:36;23.40;99.90
3709;DHT22;1870;53.996;10.784;2023-09-07T14:10:02;23.50;99.90
3709;DHT22;1870;53.996;10.784;2023-09-07T14:12:29;23.60;99.90
3709;DHT22;1870;53.996;10.784;2023-09-07T14:14:54;23.70;99.90
3709;DHT22;1870;53.996;10.784;2023-09-07T14:17:21;23.80;99.90
3709;DHT22;1870;53.996;10.784;2023-09-07T14:19:47;23.80;99.90
3709;DHT22;1870;53.996;10.784;2023-09-07T14:22:12;23.70;99.90
3709;DHT22;1870;53.996;10.784;2023-09-07T14:24:40;23.60;99.90
3709;DHT22;1870;53.996;10.784;2023-09-07T14:27:06;23.60;99.90
3709;DHT22;1870;53.996;10.784;2023-09-07T14:29:34;23.50;99.90
3709;DHT22;1870;53.996;10.784;2023-09-07T14:32:00;23.40;99.90
3709;DHT22;1870;53.996;10.784;2023-09-07T14:34:26;23.30;99.90
3709;DHT22;1870;53.996;10.784;2023-09-07T14:36:52;23.30;99.90
3709;DHT22;1870;53.996;10.784;2023-09-07T14:39:17;23.30;99.90
3709;DHT22;1870;53.996;10.784;2023-09-07T14:41:49;23.20;99.90
3709;DHT22;1870;53.996;10.784;2023-09-07T14:44:14;23.30;99.90
3709;DHT22;1870;53.996;10.784;2023-09-07T14:46:41;23.40;99.90
3709;DHT22;1870;53.996;10.784;2023-09-07T14:49:07;23.40;99.90
3709;DHT22;1870;53.996;10.784;2023-09-07T14:51:33;23.60;99.90
3709;DHT22;1870;53.996;10.784;2023-09-07T14:53:58;23.80;99.90
3709;DHT22;1870;53.996;10.784;2023-09-07T14:56:24;24.00;99.90
3709;DHT22;1870;53.996;10.784;2023-09-07T14:58:51;24.40;99.90
3709;DHT22;1870;53.996;10.784;2023-09-07T15:01:16;24.60;99.90
3709;DHT22;1870;53.996;10.784;2023-09-07T15:03:42;24.70;99.90
3709;DHT22;1870;53.996;10.784;2023-09-07T15:06:08;24.80;99.90
3709;DHT22;1870;53.996;10.784;2023-09-07T15:08:37;24.70;99.90
3709;DHT22;1870;53.996;10.784;2023-09-07T15:11:03;24.90;99.90
3709;DHT22;1870;53.996;10.784;2023-09-07T15:13:28;24.90;99.90
3709;DHT22;1870;53.996;10.784;2023-09-07T15:15:55;25.00;99.90
3709;DHT22;1870;53.996;10.784;2023-09-07T15:18:21;25.00;99.90
3709;DHT22;1870;53.996;10.784;2023-09-07T15:20:47;24.90;99.90
3709;DHT22;1870;53.996;10.784;2023-09-07T15:23:12;24.80;99.90
3709;DHT22;1870;53.996;10.784;2023-09-07T15:25:38;24.60;99.90
3709;DHT22;1870;53.996;10.784;2023-09-07T15:28:04;24.40;99.90
3709;DHT22;1870;53.996;10.784;2023-09-07T15:30:34;24.30;99.90
3709;DHT22;1870;53.996;10.784;2023-09-07T15:32:59;24.20;99.90
3709;DHT22;1870;53.996;10.784;2023-09-07T15:35:25;24.00;99.90
3709;DHT22;1870;53.996;10.784;2023-09-07T15:37:52;23.90;99.90
3709;DHT22;1870;53.996;10.784;2023-09-07T15:40:18;23.70;99.90
3709;DHT22;1870;53.996;10.784;2023-09-07T15:42:44;23.50;99.90
3709;DHT22;1870;53.996;10.784;2023-09-07T15:45:11;23.40;99.90
3709;DHT22;1870;53.996;10.784;2023-09-07T15:47:36;23.20;99.90